Clearfield, PA

4:53 PM EDT on August 04, 2015 (GMT -0400)
Clearfield | | Change Station
CLOSE
Current Station
Personal Weather Station
Location: Clearfield, PA
Elevation: 1127 ft
Nearby Weather Stations

Elev 1127 ft 41.02 °N, 78.46 °W | Updated 3 minutes ago

Scattered Clouds
Scattered Clouds
80.9 °F
Feels Like 81 °F
N
5.0
Wind Variable Wind from WNW
Gusts 5.0 mph

Today
High -- | Low -- °F
--% Chance of Precip.
Yesterday
High -- | Low -- °F
Precip. -- in
6:12 AM 8:26 PM
Waning Gibbous, 74% visible
Pressure 29.94 in
Visibility 10.0 miles
Clouds Scattered Clouds 8000 ft
Heat Index 81 °F
Dew Point 59 °F
Humidity 48%
Rainfall 0.00 in
Snow Depth Not available.
UV 2.8 out of 12
Pollen 6.40 out of 12
Air Quality Not available.
Flu Activity Not available.
METAR KFIG 041954Z AUTO 24007G15KT 10SM SCT080 27/12 A2996 RMK AO2 SLP136 T02720122

More Conditions Fewer Conditions

Pressure 29.94 in
Visibility 10.0 miles
Clouds Scattered Clouds 8000 ft
Heat Index 81 °F
Dew Point 59 °F
Humidity 48%
Rainfall 0.00 in
Snow Depth Not available.
UV 2.8 out of 12
Pollen 6.40 out of 12
Air Quality Not available.
Flu Activity Not available.
METAR KFIG 041954Z AUTO 24007G15KT 10SM SCT080 27/12 A2996 RMK AO2 SLP136 T02720122

More Conditions Fewer Conditions

10-Day Weather Forecast

×

Almanac

Astronomy

Aug. 04, 2015 Rise Set
Actual Time
Civil Twilight
Nautical Twilight
Astronomical Twilight
Moon
Length of Visible Light
Length of Day
Tomorrow will be .
, % of the Moon is Illuminated

Today's Extremes

State Highs State Lows

Community

WunderPhotos

Upload Photos

1,843,974 photos uploaded!

WunderBlogs® & News

Nearby

Air Quality

  Air Quality AQ Index Pollutant
Not available.

Snow Depth

Station Depth Elevation

Earthquake Activity

City Distance Mag. Time & Date
Minimum magnitude displayed is 2.5.

Coastal Water Temperatures

Place Temperature

Stations

Nearby Weather Stations

Station Location Temp. Windchill Dew Point Humidity Wind Precip. Elev Updated Type